sensor_id;sensor_type;location;lat;lon;timestamp;temperature;humidity
306;DHT22;137;48.578;9.180;2022-10-31T00:00:10;11.60;98.20
306;DHT22;137;48.578;9.180;2022-10-31T00:02:38;11.50;98.20
306;DHT22;137;48.578;9.180;2022-10-31T00:05:05;11.40;98.20
306;DHT22;137;48.578;9.180;2022-10-31T00:07:32;11.30;98.20
306;DHT22;137;48.578;9.180;2022-10-31T00:09:59;11.20;98.20
306;DHT22;137;48.578;9.180;2022-10-31T00:12:26;11.10;98.20
306;DHT22;137;48.578;9.180;2022-10-31T00:14:53;11.10;98.20
306;DHT22;137;48.578;9.180;2022-10-31T00:17:19;11.10;98.20
306;DHT22;137;48.578;9.180;2022-10-31T00:19:47;11.20;98.20
306;DHT22;137;48.578;9.180;2022-10-31T00:22:14;11.30;98.20
306;DHT22;137;48.578;9.180;2022-10-31T00:24:41;11.30;98.20
306;DHT22;137;48.578;9.180;2022-10-31T00:27:08;11.30;98.20
306;DHT22;137;48.578;9.180;2022-10-31T00:29:35;11.20;98.20
306;DHT22;137;48.578;9.180;2022-10-31T00:32:01;11.20;98.20
306;DHT22;137;48.578;9.180;2022-10-31T00:34:28;11.10;98.20
306;DHT22;137;48.578;9.180;2022-10-31T00:36:56;11.10;98.20
306;DHT22;137;48.578;9.180;2022-10-31T00:39:23;11.10;98.20
306;DHT22;137;48.578;9.180;2022-10-31T00:41:50;11.10;98.20
306;DHT22;137;48.578;9.180;2022-10-31T00:44:16;11.10;98.20
306;DHT22;137;48.578;9.180;2022-10-31T00:46:43;11.10;98.20
306;DHT22;137;48.578;9.180;2022-10-31T00:49:10;11.10;98.20
306;DHT22;137;48.578;9.180;2022-10-31T00:51:37;11.20;98.20
306;DHT22;137;48.578;9.180;2022-10-31T00:54:06;11.20;98.20
306;DHT22;137;48.578;9.180;2022-10-31T00:56:32;11.20;98.20
306;DHT22;137;48.578;9.180;2022-10-31T00:58:59;11.30;98.20
306;DHT22;137;48.578;9.180;2022-10-31T01:01:26;11.30;98.20
306;DHT22;137;48.578;9.180;2022-10-31T01:03:53;11.30;98.20
306;DHT22;137;48.578;9.180;2022-10-31T01:06:19;11.30;98.20
306;DHT22;137;48.578;9.180;2022-10-31T01:08:47;11.30;98.20
306;DHT22;137;48.578;9.180;2022-10-31T01:11:17;11.20;98.20
306;DHT22;137;48.578;9.180;2022-10-31T01:13:45;11.20;98.20
306;DHT22;137;48.578;9.180;2022-10-31T01:16:14;11.20;98.20
306;DHT22;137;48.578;9.180;2022-10-31T01:18:42;11.10;98.20
306;DHT22;137;48.578;9.180;2022-10-31T01:21:11;11.10;98.20
306;DHT22;137;48.578;9.180;2022-10-31T01:23:38;11.00;98.20
306;DHT22;137;48.578;9.180;2022-10-31T01:26:07;11.00;98.20
306;DHT22;137;48.578;9.180;2022-10-31T01:28:38;11.00;98.20
306;DHT22;137;48.578;9.180;2022-10-31T01:31:07;11.00;98.20
306;DHT22;137;48.578;9.180;2022-10-31T01:33:34;11.00;98.20
306;DHT22;137;48.578;9.180;2022-10-31T01:36:01;11.00;98.20
306;DHT22;137;48.578;9.180;2022-10-31T01:38:28;10.90;98.20
306;DHT22;137;48.578;9.180;2022-10-31T01:40:56;10.90;98.20
306;DHT22;137;48.578;9.180;2022-10-31T01:43:23;10.90;98.20
306;DHT22;137;48.578;9.180;2022-10-31T01:45:53;10.90;98.20
306;DHT22;137;48.578;9.180;2022-10-31T01:48:24;10.90;98.20
306;DHT22;137;48.578;9.180;2022-10-31T01:50:54;10.90;98.20
306;DHT22;137;48.578;9.180;2022-10-31T01:53:22;10.90;98.20
306;DHT22;137;48.578;9.180;2022-10-31T01:55:49;10.80;98.20
306;DHT22;137;48.578;9.180;2022-10-31T01:58:20;10.80;98.20
306;DHT22;137;48.578;9.180;2022-10-31T02:00:53;10.80;98.20
306;DHT22;137;48.578;9.180;2022-10-31T02:03:21;10.80;98.20
306;DHT22;137;48.578;9.180;2022-10-31T02:05:49;10.80;98.20
306;DHT22;137;48.578;9.180;2022-10-31T02:08:19;10.80;98.20
306;DHT22;137;48.578;9.180;2022-10-31T02:10:48;10.80;98.20
306;DHT22;137;48.578;9.180;2022-10-31T02:13:15;10.80;98.20
306;DHT22;137;48.578;9.180;2022-10-31T02:15:44;10.80;98.20
306;DHT22;137;48.578;9.180;2022-10-31T02:18:13;10.80;98.20
306;DHT22;137;48.578;9.180;2022-10-31T02:20:47;10.70;98.20
306;DHT22;137;48.578;9.180;2022-10-31T02:23:28;10.70;98.20
306;DHT22;137;48.578;9.180;2022-10-31T02:26:24;10.70;98.20
306;DHT22;137;48.578;9.180;2022-10-31T02:29:10;10.60;98.20
306;DHT22;137;48.578;9.180;2022-10-31T02:31:47;10.60;98.20
306;DHT22;137;48.578;9.180;2022-10-31T02:34:18;10.60;98.20
306;DHT22;137;48.578;9.180;2022-10-31T02:36:53;10.60;98.20
306;DHT22;137;48.578;9.180;2022-10-31T02:39:25;10.60;98.20
306;DHT22;137;48.578;9.180;2022-10-31T02:42:01;10.60;98.20
306;DHT22;137;48.578;9.180;2022-10-31T02:44:36;10.60;98.20
306;DHT22;137;48.578;9.180;2022-10-31T02:47:09;10.50;98.20
306;DHT22;137;48.578;9.180;2022-10-31T02:49:42;10.50;98.20
306;DHT22;137;48.578;9.180;2022-10-31T02:52:17;10.50;98.20
306;DHT22;137;48.578;9.180;2022-10-31T02:54:46;10.40;98.20
306;DHT22;137;48.578;9.180;2022-10-31T02:57:14;10.40;98.20
306;DHT22;137;48.578;9.180;2022-10-31T02:59:46;10.30;98.20
306;DHT22;137;48.578;9.180;2022-10-31T03:02:34;10.20;98.20
306;DHT22;137;48.578;9.180;2022-10-31T03:05:22;10.10;98.20
306;DHT22;137;48.578;9.180;2022-10-31T03:07:59;10.10;98.20
306;DHT22;137;48.578;9.180;2022-10-31T03:10:34;10.00;98.20
306;DHT22;137;48.578;9.180;2022-10-31T03:13:08;10.00;98.20
306;DHT22;137;48.578;9.180;2022-10-31T03:15:39;9.90;98.20
306;DHT22;137;48.578;9.180;2022-10-31T03:18:10;10.00;98.20
306;DHT22;137;48.578;9.180;2022-10-31T03:20:40;9.90;98.20
306;DHT22;137;48.578;9.180;2022-10-31T03:23:11;9.90;98.20
306;DHT22;137;48.578;9.180;2022-10-31T03:25:39;9.80;98.20
306;DHT22;137;48.578;9.180;2022-10-31T03:28:07;9.80;98.20
306;DHT22;137;48.578;9.180;2022-10-31T03:30:37;9.80;98.20
306;DHT22;137;48.578;9.180;2022-10-31T03:33:10;9.70;98.20
306;DHT22;137;48.578;9.180;2022-10-31T03:35:39;9.70;98.20
306;DHT22;137;48.578;9.180;2022-10-31T03:38:09;9.60;98.20
306;DHT22;137;48.578;9.180;2022-10-31T03:40:37;9.60;98.20
306;DHT22;137;48.578;9.180;2022-10-31T03:43:06;9.60;98.20
306;DHT22;137;48.578;9.180;2022-10-31T03:45:39;9.60;98.20
306;DHT22;137;48.578;9.180;2022-10-31T03:48:08;9.60;98.20
306;DHT22;137;48.578;9.180;2022-10-31T03:50:39;9.50;98.20
306;DHT22;137;48.578;9.180;2022-10-31T03:53:11;9.50;98.20
306;DHT22;137;48.578;9.180;2022-10-31T03:55:42;9.40;98.20
306;DHT22;137;48.578;9.180;2022-10-31T03:58:15;9.30;98.20
306;DHT22;137;48.578;9.180;2022-10-31T04:00:46;9.30;98.20
306;DHT22;137;48.578;9.180;2022-10-31T04:03:20;9.20;98.20
306;DHT22;137;48.578;9.180;2022-10-31T04:05:48;9.20;98.20
306;DHT22;137;48.578;9.180;2022-10-31T04:08:20;9.20;98.20
306;DHT22;137;48.578;9.180;2022-10-31T04:10:49;9.20;98.20
306;DHT22;137;48.578;9.180;2022-10-31T04:13:20;9.10;98.20
306;DHT22;137;48.578;9.180;2022-10-31T04:15:50;9.10;98.20
306;DHT22;137;48.578;9.180;2022-10-31T04:18:20;9.10;98.20
306;DHT22;137;48.578;9.180;2022-10-31T04:20:47;9.10;98.20
306;DHT22;137;48.578;9.180;2022-10-31T04:23:18;9.10;98.20
306;DHT22;137;48.578;9.180;2022-10-31T04:25:45;9.10;98.20
306;DHT22;137;48.578;9.180;2022-10-31T04:28:12;9.10;98.20
306;DHT22;137;48.578;9.180;2022-10-31T04:30:39;9.20;98.20
306;DHT22;137;48.578;9.180;2022-10-31T04:33:06;9.20;98.20
306;DHT22;137;48.578;9.180;2022-10-31T04:35:34;9.10;98.20
306;DHT22;137;48.578;9.180;2022-10-31T04:38:01;9.10;98.20
306;DHT22;137;48.578;9.180;2022-10-31T04:40:27;9.20;98.20
306;DHT22;137;48.578;9.180;2022-10-31T04:42:54;9.10;98.20
306;DHT22;137;48.578;9.180;2022-10-31T04:45:21;9.20;98.20
306;DHT22;137;48.578;9.180;2022-10-31T04:47:48;9.20;98.20
306;DHT22;137;48.578;9.180;2022-10-31T04:50:15;9.10;98.20
306;DHT22;137;48.578;9.180;2022-10-31T04:52:44;9.10;98.20
306;DHT22;137;48.578;9.180;2022-10-31T04:55:12;9.10;98.20
306;DHT22;137;48.578;9.180;2022-10-31T04:57:41;9.00;98.20
306;DHT22;137;48.578;9.180;2022-10-31T05:00:11;9.10;98.20
306;DHT22;137;48.578;9.180;2022-10-31T05:02:43;9.00;98.20
306;DHT22;137;48.578;9.180;2022-10-31T05:05:10;9.10;98.20
306;DHT22;137;48.578;9.180;2022-10-31T05:07:38;9.00;98.20
306;DHT22;137;48.578;9.180;2022-10-31T05:10:08;8.90;98.20
306;DHT22;137;48.578;9.180;2022-10-31T05:12:36;8.90;98.20
306;DHT22;137;48.578;9.180;2022-10-31T05:15:03;8.90;98.20
306;DHT22;137;48.578;9.180;2022-10-31T05:17:30;8.80;98.20
306;DHT22;137;48.578;9.180;2022-10-31T05:19:57;8.80;98.20
306;DHT22;137;48.578;9.180;2022-10-31T05:22:24;8.70;98.20
306;DHT22;137;48.578;9.180;2022-10-31T05:24:51;8.70;98.20
306;DHT22;137;48.578;9.180;2022-10-31T05:27:19;8.60;98.20
306;DHT22;137;48.578;9.180;2022-10-31T05:29:46;8.50;98.20
306;DHT22;137;48.578;9.180;2022-10-31T05:32:13;8.50;98.20
306;DHT22;137;48.578;9.180;2022-10-31T05:34:39;8.40;98.20
306;DHT22;137;48.578;9.180;2022-10-31T05:37:06;8.40;98.20
306;DHT22;137;48.578;9.180;2022-10-31T05:39:33;8.40;98.20
306;DHT22;137;48.578;9.180;2022-10-31T05:42:00;8.40;98.20
306;DHT22;137;48.578;9.180;2022-10-31T05:44:28;8.40;98.20
306;DHT22;137;48.578;9.180;2022-10-31T05:46:55;8.40;98.20
306;DHT22;137;48.578;9.180;2022-10-31T05:49:21;8.50;98.20
306;DHT22;137;48.578;9.180;2022-10-31T05:51:49;8.50;98.20
306;DHT22;137;48.578;9.180;2022-10-31T05:54:15;8.50;98.20
306;DHT22;137;48.578;9.180;2022-10-31T05:56:42;8.50;98.20
306;DHT22;137;48.578;9.180;2022-10-31T05:59:09;8.60;98.20
306;DHT22;137;48.578;9.180;2022-10-31T06:01:37;8.60;98.20
306;DHT22;137;48.578;9.180;2022-10-31T06:04:04;8.60;98.20
306;DHT22;137;48.578;9.180;2022-10-31T06:06:31;8.60;98.20
306;DHT22;137;48.578;9.180;2022-10-31T06:08:57;8.60;98.20
306;DHT22;137;48.578;9.180;2022-10-31T06:11:24;8.60;98.20
306;DHT22;137;48.578;9.180;2022-10-31T06:13:51;8.60;98.20
306;DHT22;137;48.578;9.180;2022-10-31T06:16:18;8.70;98.20
306;DHT22;137;48.578;9.180;2022-10-31T06:18:47;8.70;98.20
306;DHT22;137;48.578;9.180;2022-10-31T06:21:13;8.70;98.20
306;DHT22;137;48.578;9.180;2022-10-31T06:23:40;8.70;98.20
306;DHT22;137;48.578;9.180;2022-10-31T06:26:07;8.70;98.20
306;DHT22;137;48.578;9.180;2022-10-31T06:28:34;8.70;98.20
306;DHT22;137;48.578;9.180;2022-10-31T06:31:00;8.80;98.20
306;DHT22;137;48.578;9.180;2022-10-31T06:33:27;8.90;98.20
306;DHT22;137;48.578;9.180;2022-10-31T06:35:55;8.90;98.20
306;DHT22;137;48.578;9.180;2022-10-31T06:38:22;9.00;98.20
306;DHT22;137;48.578;9.180;2022-10-31T06:40:49;9.00;98.20
306;DHT22;137;48.578;9.180;2022-10-31T06:43:15;9.00;98.20
306;DHT22;137;48.578;9.180;2022-10-31T06:45:42;9.00;98.20
306;DHT22;137;48.578;9.180;2022-10-31T06:48:09;9.00;98.20
306;DHT22;137;48.578;9.180;2022-10-31T06:50:36;9.00;98.20
306;DHT22;137;48.578;9.180;2022-10-31T06:53:04;9.10;98.20
306;DHT22;137;48.578;9.180;2022-10-31T06:55:30;9.20;98.20
306;DHT22;137;48.578;9.180;2022-10-31T06:57:58;9.20;98.20
306;DHT22;137;48.578;9.180;2022-10-31T07:00:26;9.20;98.20
306;DHT22;137;48.578;9.180;2022-10-31T07:02:55;9.20;98.20
306;DHT22;137;48.578;9.180;2022-10-31T07:05:22;9.20;98.20
306;DHT22;137;48.578;9.180;2022-10-31T07:07:52;9.30;98.20
306;DHT22;137;48.578;9.180;2022-10-31T07:10:20;9.30;98.20
306;DHT22;137;48.578;9.180;2022-10-31T07:12:47;9.40;98.20
306;DHT22;137;48.578;9.180;2022-10-31T07:15:14;9.40;98.20
306;DHT22;137;48.578;9.180;2022-10-31T07:17:40;9.50;98.20
306;DHT22;137;48.578;9.180;2022-10-31T07:20:08;9.60;98.20
306;DHT22;137;48.578;9.180;2022-10-31T07:22:36;9.70;98.20
306;DHT22;137;48.578;9.180;2022-10-31T07:25:03;9.80;98.20
306;DHT22;137;48.578;9.180;2022-10-31T07:27:36;9.90;98.20
306;DHT22;137;48.578;9.180;2022-10-31T07:30:04;10.00;98.20
306;DHT22;137;48.578;9.180;2022-10-31T07:32:37;10.10;98.20
306;DHT22;137;48.578;9.180;2022-10-31T07:35:04;10.10;98.20
306;DHT22;137;48.578;9.180;2022-10-31T07:37:31;10.20;98.20
306;DHT22;137;48.578;9.180;2022-10-31T07:39:58;10.30;98.20
306;DHT22;137;48.578;9.180;2022-10-31T07:42:25;10.40;98.20
306;DHT22;137;48.578;9.180;2022-10-31T07:44:53;10.40;98.20
306;DHT22;137;48.578;9.180;2022-10-31T07:47:20;10.50;98.20
306;DHT22;137;48.578;9.180;2022-10-31T07:49:46;10.50;98.20
306;DHT22;137;48.578;9.180;2022-10-31T07:52:13;10.60;98.20
306;DHT22;137;48.578;9.180;2022-10-31T07:54:40;10.70;98.20
306;DHT22;137;48.578;9.180;2022-10-31T07:57:07;10.80;98.20
306;DHT22;137;48.578;9.180;2022-10-31T07:59:33;10.90;98.20
306;DHT22;137;48.578;9.180;2022-10-31T08:02:01;11.00;98.20
306;DHT22;137;48.578;9.180;2022-10-31T08:04:28;11.10;98.20
306;DHT22;137;48.578;9.180;2022-10-31T08:06:55;11.30;98.20
306;DHT22;137;48.578;9.180;2022-10-31T08:09:22;11.30;98.20
306;DHT22;137;48.578;9.180;2022-10-31T08:11:48;11.40;98.20
306;DHT22;137;48.578;9.180;2022-10-31T08:14:15;11.60;98.20
306;DHT22;137;48.578;9.180;2022-10-31T08:16:42;11.80;98.20
306;DHT22;137;48.578;9.180;2022-10-31T08:19:10;11.90;98.20
306;DHT22;137;48.578;9.180;2022-10-31T08:21:37;12.00;98.20
306;DHT22;137;48.578;9.180;2022-10-31T08:24:04;12.10;98.20
306;DHT22;137;48.578;9.180;2022-10-31T08:26:31;12.20;98.20
306;DHT22;137;48.578;9.180;2022-10-31T08:28:58;12.40;98.20
306;DHT22;137;48.578;9.180;2022-10-31T08:31:25;12.60;98.20
306;DHT22;137;48.578;9.180;2022-10-31T08:33:53;12.70;98.20
306;DHT22;137;48.578;9.180;2022-10-31T08:36:21;12.80;98.20
306;DHT22;137;48.578;9.180;2022-10-31T08:38:48;13.00;98.20
306;DHT22;137;48.578;9.180;2022-10-31T08:41:15;13.10;98.20
306;DHT22;137;48.578;9.180;2022-10-31T08:43:41;13.20;98.20
306;DHT22;137;48.578;9.180;2022-10-31T08:46:08;13.30;98.20
306;DHT22;137;48.578;9.180;2022-10-31T08:48:35;13.30;98.20
306;DHT22;137;48.578;9.180;2022-10-31T08:51:02;13.40;98.20
306;DHT22;137;48.578;9.180;2022-10-31T08:53:30;13.60;98.20
306;DHT22;137;48.578;9.180;2022-10-31T08:55:58;13.70;98.20
306;DHT22;137;48.578;9.180;2022-10-31T08:58:26;13.90;98.20
306;DHT22;137;48.578;9.180;2022-10-31T09:01:06;13.90;98.20
306;DHT22;137;48.578;9.180;2022-10-31T10:24:32;17.50;98.20
306;DHT22;137;48.578;9.180;2022-10-31T10:27:19;17.40;98.20
306;DHT22;137;48.578;9.180;2022-10-31T10:29:58;17.40;98.20
306;DHT22;137;48.578;9.180;2022-10-31T10:32:29;17.60;98.20
306;DHT22;137;48.578;9.180;2022-10-31T10:35:02;17.60;98.20
306;DHT22;137;48.578;9.180;2022-10-31T10:37:34;17.60;98.20
306;DHT22;137;48.578;9.180;2022-10-31T10:40:07;17.60;98.20
306;DHT22;137;48.578;9.180;2022-10-31T10:42:37;17.80;98.20
306;DHT22;137;48.578;9.180;2022-10-31T10:45:22;17.80;98.20
306;DHT22;137;48.578;9.180;2022-10-31T10:48:12;17.80;98.20
306;DHT22;137;48.578;9.180;2022-10-31T10:50:43;17.90;98.20
306;DHT22;137;48.578;9.180;2022-10-31T10:53:22;18.00;98.20
306;DHT22;137;48.578;9.180;2022-10-31T10:56:07;18.20;98.20
306;DHT22;137;48.578;9.180;2022-10-31T10:58:40;18.40;98.20
306;DHT22;137;48.578;9.180;2022-10-31T11:01:11;18.70;98.20
306;DHT22;137;48.578;9.180;2022-10-31T11:03:39;18.90;98.20
306;DHT22;137;48.578;9.180;2022-10-31T11:06:16;18.90;98.20
306;DHT22;137;48.578;9.180;2022-10-31T11:08:46;18.70;98.20
306;DHT22;137;48.578;9.180;2022-10-31T11:11:23;18.70;98.20
306;DHT22;137;48.578;9.180;2022-10-31T11:13:57;19.10;98.20
306;DHT22;137;48.578;9.180;2022-10-31T11:16:30;19.20;98.20
306;DHT22;137;48.578;9.180;2022-10-31T11:19:12;19.30;98.20
306;DHT22;137;48.578;9.180;2022-10-31T11:21:40;19.40;98.20
306;DHT22;137;48.578;9.180;2022-10-31T11:24:15;19.50;98.20
306;DHT22;137;48.578;9.180;2022-10-31T11:26:46;19.70;98.20
306;DHT22;137;48.578;9.180;2022-10-31T11:29:16;20.00;98.20
306;DHT22;137;48.578;9.180;2022-10-31T11:31:44;20.20;98.20
306;DHT22;137;48.578;9.180;2022-10-31T11:34:21;20.30;98.20
306;DHT22;137;48.578;9.180;2022-10-31T11:36:50;20.40;98.20
306;DHT22;137;48.578;9.180;2022-10-31T11:39:19;20.40;98.20
306;DHT22;137;48.578;9.180;2022-10-31T11:41:49;20.50;98.20
306;DHT22;137;48.578;9.180;2022-10-31T11:44:20;20.40;98.20
306;DHT22;137;48.578;9.180;2022-10-31T11:46:51;20.40;98.20
306;DHT22;137;48.578;9.180;2022-10-31T11:49:27;20.30;98.20
306;DHT22;137;48.578;9.180;2022-10-31T11:51:58;20.30;98.20
306;DHT22;137;48.578;9.180;2022-10-31T11:54:27;20.20;98.20
306;DHT22;137;48.578;9.180;2022-10-31T11:56:57;20.10;98.20
306;DHT22;137;48.578;9.180;2022-10-31T11:59:27;19.90;98.20
306;DHT22;137;48.578;9.180;2022-10-31T12:01:55;19.90;98.20
306;DHT22;137;48.578;9.180;2022-10-31T12:04:31;20.10;98.20
306;DHT22;137;48.578;9.180;2022-10-31T12:07:00;20.00;98.20
306;DHT22;137;48.578;9.180;2022-10-31T12:09:29;20.10;98.20
306;DHT22;137;48.578;9.180;2022-10-31T12:12:18;20.10;98.20
306;DHT22;137;48.578;9.180;2022-10-31T12:14:57;20.30;98.20
306;DHT22;137;48.578;9.180;2022-10-31T12:17:33;20.30;98.20
306;DHT22;137;48.578;9.180;2022-10-31T12:20:10;20.30;98.20
306;DHT22;137;48.578;9.180;2022-10-31T12:22:50;20.20;98.20
306;DHT22;137;48.578;9.180;2022-10-31T12:25:40;20.10;98.20
306;DHT22;137;48.578;9.180;2022-10-31T12:28:39;20.00;98.20
306;DHT22;137;48.578;9.180;2022-10-31T12:31:23;19.90;98.20
306;DHT22;137;48.578;9.180;2022-10-31T12:34:00;19.80;98.20
306;DHT22;137;48.578;9.180;2022-10-31T12:36:42;19.80;98.20
306;DHT22;137;48.578;9.180;2022-10-31T12:39:23;19.80;98.20
306;DHT22;137;48.578;9.180;2022-10-31T12:41:52;19.70;98.20
306;DHT22;137;48.578;9.180;2022-10-31T12:47:51;19.50;98.20
306;DHT22;137;48.578;9.180;2022-10-31T12:50:30;19.60;98.20
306;DHT22;137;48.578;9.180;2022-10-31T12:53:09;19.60;98.20
306;DHT22;137;48.578;9.180;2022-10-31T12:55:47;19.40;98.20
306;DHT22;137;48.578;9.180;2022-10-31T12:58:20;19.10;98.20
306;DHT22;137;48.578;9.180;2022-10-31T13:00:53;19.00;98.20
306;DHT22;137;48.578;9.180;2022-10-31T13:03:31;19.00;98.20
306;DHT22;137;48.578;9.180;2022-10-31T13:06:05;19.00;98.20
306;DHT22;137;48.578;9.180;2022-10-31T13:08:38;19.10;98.20
306;DHT22;137;48.578;9.180;2022-10-31T13:11:08;19.20;98.20
306;DHT22;137;48.578;9.180;2022-10-31T13:13:40;19.30;98.20
306;DHT22;137;48.578;9.180;2022-10-31T13:16:14;19.30;98.20
306;DHT22;137;48.578;9.180;2022-10-31T13:18:45;19.40;98.20
306;DHT22;137;48.578;9.180;2022-10-31T13:21:18;19.50;98.20
306;DHT22;137;48.578;9.180;2022-10-31T13:23:48;19.50;98.20
306;DHT22;137;48.578;9.180;2022-10-31T13:26:21;19.60;98.20
306;DHT22;137;48.578;9.180;2022-10-31T13:28:58;19.70;98.20
306;DHT22;137;48.578;9.180;2022-10-31T13:31:29;19.90;98.20
306;DHT22;137;48.578;9.180;2022-10-31T13:51:40;20.20;98.20
306;DHT22;137;48.578;9.180;2022-10-31T13:54:20;20.10;98.20
306;DHT22;137;48.578;9.180;2022-10-31T13:56:49;19.90;98.20
306;DHT22;137;48.578;9.180;2022-10-31T13:59:19;19.80;98.20
306;DHT22;137;48.578;9.180;2022-10-31T14:01:50;19.80;98.20
306;DHT22;137;48.578;9.180;2022-10-31T14:04:19;19.80;98.20
306;DHT22;137;48.578;9.180;2022-10-31T14:06:57;19.90;98.20
306;DHT22;137;48.578;9.180;2022-10-31T14:09:28;20.20;98.20
306;DHT22;137;48.578;9.180;2022-10-31T14:11:56;20.40;98.20
306;DHT22;137;48.578;9.180;2022-10-31T14:14:30;20.60;98.20
306;DHT22;137;48.578;9.180;2022-10-31T14:16:59;20.70;98.20
306;DHT22;137;48.578;9.180;2022-10-31T14:19:26;20.70;98.20
306;DHT22;137;48.578;9.180;2022-10-31T14:21:55;20.70;98.20
306;DHT22;137;48.578;9.180;2022-10-31T14:24:35;20.60;98.20
306;DHT22;137;48.578;9.180;2022-10-31T14:27:30;20.60;98.20
306;DHT22;137;48.578;9.180;2022-10-31T14:29:51;20.60;98.20
306;DHT22;137;48.578;9.180;2022-10-31T14:32:21;20.40;98.20
306;DHT22;137;48.578;9.180;2022-10-31T14:34:53;20.30;98.20
306;DHT22;137;48.578;9.180;2022-10-31T14:37:32;20.10;98.20
306;DHT22;137;48.578;9.180;2022-10-31T14:40:22;19.90;98.20
306;DHT22;137;48.578;9.180;2022-10-31T14:46:00;19.50;98.20
306;DHT22;137;48.578;9.180;2022-10-31T14:48:52;19.40;98.20
306;DHT22;137;48.578;9.180;2022-10-31T14:51:21;19.40;98.20
306;DHT22;137;48.578;9.180;2022-10-31T14:53:52;19.40;98.20
306;DHT22;137;48.578;9.180;2022-10-31T14:56:23;19.40;98.20
306;DHT22;137;48.578;9.180;2022-10-31T14:58:50;19.40;98.20
306;DHT22;137;48.578;9.180;2022-10-31T15:01:24;19.40;98.20
306;DHT22;137;48.578;9.180;2022-10-31T15:03:52;19.40;98.20
306;DHT22;137;48.578;9.180;2022-10-31T15:06:22;19.40;98.20
306;DHT22;137;48.578;9.180;2022-10-31T15:08:53;19.30;98.20
306;DHT22;137;48.578;9.180;2022-10-31T15:11:37;19.10;98.20
306;DHT22;137;48.578;9.180;2022-10-31T15:14:22;18.90;98.20
306;DHT22;137;48.578;9.180;2022-10-31T15:16:50;18.70;98.20
306;DHT22;137;48.578;9.180;2022-10-31T16:01:33;16.20;98.20
306;DHT22;137;48.578;9.180;2022-10-31T16:04:22;16.30;98.20
306;DHT22;137;48.578;9.180;2022-10-31T16:07:14;16.30;98.20
306;DHT22;137;48.578;9.180;2022-10-31T16:10:04;16.20;98.20
306;DHT22;137;48.578;9.180;2022-10-31T16:12:46;16.10;98.20
306;DHT22;137;48.578;9.180;2022-10-31T16:15:27;16.10;98.20
306;DHT22;137;48.578;9.180;2022-10-31T16:31:14;15.40;98.20
306;DHT22;137;48.578;9.180;2022-10-31T16:33:41;15.30;98.20
306;DHT22;137;48.578;9.180;2022-10-31T16:36:30;15.10;98.20
306;DHT22;137;48.578;9.180;2022-10-31T16:38:57;14.90;98.20
306;DHT22;137;48.578;9.180;2022-10-31T16:41:24;14.70;98.20
306;DHT22;137;48.578;9.180;2022-10-31T16:43:51;14.70;98.20
306;DHT22;137;48.578;9.180;2022-10-31T16:46:23;14.70;98.20
306;DHT22;137;48.578;9.180;2022-10-31T16:48:50;14.70;98.20
306;DHT22;137;48.578;9.180;2022-10-31T16:51:17;14.70;98.20
306;DHT22;137;48.578;9.180;2022-10-31T16:53:44;14.70;98.20
306;DHT22;137;48.578;9.180;2022-10-31T16:56:15;14.70;98.20
306;DHT22;137;48.578;9.180;2022-10-31T16:58:43;14.70;98.20
306;DHT22;137;48.578;9.180;2022-10-31T17:01:11;14.60;98.20
306;DHT22;137;48.578;9.180;2022-10-31T17:03:40;14.50;98.20
306;DHT22;137;48.578;9.180;2022-10-31T17:06:10;14.30;98.20
306;DHT22;137;48.578;9.180;2022-10-31T17:08:37;14.20;98.20
306;DHT22;137;48.578;9.180;2022-10-31T17:11:05;14.00;98.20
306;DHT22;137;48.578;9.180;2022-10-31T17:13:33;14.00;98.20
306;DHT22;137;48.578;9.180;2022-10-31T17:16:01;14.00;98.20
306;DHT22;137;48.578;9.180;2022-10-31T17:18:29;13.90;98.20
306;DHT22;137;48.578;9.180;2022-10-31T17:20:58;13.80;98.20
306;DHT22;137;48.578;9.180;2022-10-31T17:23:26;13.80;98.20
306;DHT22;137;48.578;9.180;2022-10-31T17:25:53;13.70;98.20
306;DHT22;137;48.578;9.180;2022-10-31T17:28:20;13.60;98.20
306;DHT22;137;48.578;9.180;2022-10-31T17:30:47;13.60;98.20
306;DHT22;137;48.578;9.180;2022-10-31T17:33:15;13.50;98.20
306;DHT22;137;48.578;9.180;2022-10-31T17:35:42;13.60;98.20
306;DHT22;137;48.578;9.180;2022-10-31T17:38:12;13.50;98.20
306;DHT22;137;48.578;9.180;2022-10-31T17:40:40;13.50;98.20
306;DHT22;137;48.578;9.180;2022-10-31T17:43:08;13.40;98.20
306;DHT22;137;48.578;9.180;2022-10-31T17:45:37;13.50;98.20
306;DHT22;137;48.578;9.180;2022-10-31T17:48:05;13.30;98.20
306;DHT22;137;48.578;9.180;2022-10-31T17:50:33;13.30;98.20
306;DHT22;137;48.578;9.180;2022-10-31T17:52:59;13.40;98.20
306;DHT22;137;48.578;9.180;2022-10-31T17:55:27;13.40;98.20
306;DHT22;137;48.578;9.180;2022-10-31T17:57:54;13.40;98.20
306;DHT22;137;48.578;9.180;2022-10-31T18:00:21;13.40;98.20
306;DHT22;137;48.578;9.180;2022-10-31T18:02:49;13.40;98.20
306;DHT22;137;48.578;9.180;2022-10-31T18:05:16;13.20;98.20
306;DHT22;137;48.578;9.180;2022-10-31T18:07:43;13.10;98.20
306;DHT22;137;48.578;9.180;2022-10-31T18:10:10;12.90;98.20
306;DHT22;137;48.578;9.180;2022-10-31T18:12:38;12.90;98.20
306;DHT22;137;48.578;9.180;2022-10-31T18:15:06;12.90;98.20
306;DHT22;137;48.578;9.180;2022-10-31T18:17:32;13.00;98.20
306;DHT22;137;48.578;9.180;2022-10-31T18:19:59;13.10;98.20
306;DHT22;137;48.578;9.180;2022-10-31T18:22:26;13.10;98.20
306;DHT22;137;48.578;9.180;2022-10-31T18:24:53;13.20;98.20
306;DHT22;137;48.578;9.180;2022-10-31T18:27:20;13.20;98.20
306;DHT22;137;48.578;9.180;2022-10-31T18:29:48;13.10;98.20
306;DHT22;137;48.578;9.180;2022-10-31T18:32:15;13.10;98.20
306;DHT22;137;48.578;9.180;2022-10-31T18:34:41;12.90;98.20
306;DHT22;137;48.578;9.180;2022-10-31T18:37:08;12.90;98.20
306;DHT22;137;48.578;9.180;2022-10-31T18:39:35;13.00;98.20
306;DHT22;137;48.578;9.180;2022-10-31T18:42:02;13.10;98.20
306;DHT22;137;48.578;9.180;2022-10-31T18:44:29;13.10;98.20
306;DHT22;137;48.578;9.180;2022-10-31T18:46:58;12.90;98.20
306;DHT22;137;48.578;9.180;2022-10-31T18:49:25;12.80;98.20
306;DHT22;137;48.578;9.180;2022-10-31T18:51:53;12.80;98.20
306;DHT22;137;48.578;9.180;2022-10-31T18:54:20;12.80;98.20
306;DHT22;137;48.578;9.180;2022-10-31T18:56:47;12.80;98.20
306;DHT22;137;48.578;9.180;2022-10-31T18:59:14;12.80;98.20
306;DHT22;137;48.578;9.180;2022-10-31T19:01:40;12.70;98.20
306;DHT22;137;48.578;9.180;2022-10-31T19:04:10;12.80;98.20
306;DHT22;137;48.578;9.180;2022-10-31T19:06:37;12.70;98.20
306;DHT22;137;48.578;9.180;2022-10-31T19:09:05;12.70;98.20
306;DHT22;137;48.578;9.180;2022-10-31T19:11:34;12.70;98.20
306;DHT22;137;48.578;9.180;2022-10-31T19:14:01;12.60;98.20
306;DHT22;137;48.578;9.180;2022-10-31T19:16:29;12.50;98.20
306;DHT22;137;48.578;9.180;2022-10-31T19:18:56;12.30;98.20
306;DHT22;137;48.578;9.180;2022-10-31T19:21:26;12.20;98.20
306;DHT22;137;48.578;9.180;2022-10-31T19:23:53;12.10;98.20
306;DHT22;137;48.578;9.180;2022-10-31T19:26:21;11.90;98.20
306;DHT22;137;48.578;9.180;2022-10-31T19:28:49;11.90;98.20
306;DHT22;137;48.578;9.180;2022-10-31T19:31:16;12.10;98.20
306;DHT22;137;48.578;9.180;2022-10-31T19:33:43;12.00;98.20
306;DHT22;137;48.578;9.180;2022-10-31T19:36:13;12.00;98.20
306;DHT22;137;48.578;9.180;2022-10-31T19:38:43;12.10;98.20